createdAt,value
2019-01-26T00:01:32.105Z,15.10
2019-01-26T00:04:02.176Z,18.30
2019-01-26T00:06:32.046Z,17.10
2019-01-26T00:09:02.186Z,14.50
2019-01-26T00:11:33.736Z,15.80
2019-01-26T00:14:04.010Z,15.73
2019-01-26T00:16:33.920Z,16.17
2019-01-26T00:19:03.722Z,15.93
2019-01-26T00:21:33.375Z,16.30
2019-01-26T00:24:03.255Z,15.63
2019-01-26T00:26:36.359Z,13.57
2019-01-26T00:29:05.035Z,15.80
2019-01-26T00:31:35.166Z,16.47
2019-01-26T00:34:05.102Z,13.90
2019-01-26T00:36:44.473Z,15.43
2019-01-26T00:39:16.831Z,15.03
2019-01-26T00:41:50.428Z,13.90
2019-01-26T00:44:20.584Z,15.63
2019-01-26T00:46:50.360Z,15.47
2019-01-26T00:49:28.182Z,17.77
2019-01-26T00:51:57.736Z,13.03
2019-01-26T00:54:27.106Z,14.03
2019-01-26T00:56:56.974Z,14.53
2019-01-26T00:59:27.578Z,14.07
2019-01-26T01:01:57.431Z,14.37
2019-01-26T01:04:27.106Z,15.37
2019-01-26T01:06:57.073Z,13.40
2019-01-26T01:09:26.962Z,17.67
2019-01-26T01:11:56.796Z,14.10
2019-01-26T01:14:26.713Z,12.03
2019-01-26T01:16:58.626Z,12.63
2019-01-26T01:19:29.204Z,14.97
2019-01-26T01:22:00.177Z,11.70
2019-01-26T01:24:30.517Z,11.60
2019-01-26T01:27:03.664Z,13.80
2019-01-26T01:29:33.953Z,15.13
2019-01-26T01:32:03.708Z,13.77
2019-01-26T01:34:33.481Z,11.47
2019-01-26T01:37:12.841Z,12.50
2019-01-26T01:39:44.793Z,14.70
2019-01-26T01:42:15.197Z,15.10
2019-01-26T01:44:47.840Z,12.90
2019-01-26T01:47:18.802Z,12.87
2019-01-26T01:49:50.902Z,15.07
2019-01-26T01:52:25.764Z,11.63
2019-01-26T01:54:59.015Z,12.80
2019-01-26T01:57:31.708Z,12.33
2019-01-26T02:00:02.438Z,10.50
2019-01-26T02:02:32.757Z,12.40
2019-01-26T02:05:03.362Z,11.17
2019-01-26T02:07:33.648Z,13.27
2019-01-26T02:10:03.656Z,13.23
2019-01-26T02:12:33.661Z,13.20
2019-01-26T02:15:05.069Z,11.03
2019-01-26T02:17:35.046Z,14.10
2019-01-26T02:20:06.064Z,11.77
2019-01-26T02:22:36.454Z,11.50
2019-01-26T02:25:08.000Z,11.93
2019-01-26T02:27:45.165Z,11.90
2019-01-26T02:30:23.826Z,12.03
2019-01-26T02:33:45.382Z,13.20
2019-01-26T02:36:15.546Z,12.07
2019-01-26T02:38:45.640Z,12.20
2019-01-26T02:41:22.778Z,11.60
2019-01-26T02:43:52.978Z,12.40
2019-01-26T02:46:33.015Z,12.03
2019-01-26T02:49:06.675Z,11.07
2019-01-26T02:51:36.442Z,9.90
2019-01-26T02:54:06.667Z,11.57
2019-01-26T02:56:36.344Z,10.40
2019-01-26T02:59:06.361Z,12.80
2019-01-26T03:01:36.024Z,11.43
2019-01-26T03:04:06.133Z,11.83
2019-01-26T03:06:36.178Z,11.23
2019-01-26T03:09:10.691Z,13.07
2019-01-26T03:11:41.586Z,11.33
2019-01-26T03:14:11.991Z,12.47
2019-01-26T03:16:42.107Z,10.33
2019-01-26T03:19:13.886Z,11.93
2019-01-26T03:21:43.422Z,9.93
2019-01-26T03:24:19.747Z,10.63
2019-01-26T03:26:49.817Z,11.37
2019-01-26T03:29:19.608Z,13.10
2019-01-26T03:31:49.606Z,10.40
2019-01-26T03:34:24.183Z,10.10
2019-01-26T03:36:54.456Z,11.20
2019-01-26T03:39:25.133Z,8.70
2019-01-26T03:41:55.849Z,13.60
2019-01-26T03:44:26.633Z,9.80
2019-01-26T03:47:01.026Z,9.30
2019-01-26T03:49:31.570Z,11.17
2019-01-26T03:52:02.358Z,11.07
2019-01-26T03:54:32.902Z,11.07
2019-01-26T03:57:05.586Z,11.00
2019-01-26T03:59:38.852Z,12.17
2019-01-26T04:02:13.122Z,12.07
2019-01-26T04:04:43.338Z,9.50
2019-01-26T04:07:13.403Z,9.97
2019-01-26T04:09:46.854Z,10.07
2019-01-26T04:12:21.780Z,9.63
2019-01-26T04:14:51.659Z,8.20
2019-01-26T04:17:22.302Z,10.80
2019-01-26T04:19:52.283Z,9.57
2019-01-26T04:22:23.056Z,9.03
2019-01-26T04:24:53.548Z,9.23
2019-01-26T04:27:24.268Z,9.60
2019-01-26T04:29:53.931Z,9.93
2019-01-26T04:32:23.955Z,10.23
2019-01-26T04:34:54.327Z,9.13
2019-01-26T04:37:26.258Z,8.50
2019-01-26T04:39:56.527Z,9.27
2019-01-26T04:42:26.859Z,10.77
2019-01-26T04:45:03.427Z,9.13
2019-01-26T04:47:33.746Z,7.97
2019-01-26T04:50:09.025Z,8.30
2019-01-26T04:52:41.081Z,6.67
2019-01-26T04:55:11.310Z,7.60
2019-01-26T04:57:41.611Z,6.30
2019-01-26T05:00:15.362Z,9.23
2019-01-26T05:02:46.882Z,6.40
2019-01-26T05:05:17.592Z,6.83
2019-01-26T05:07:48.191Z,7.10
2019-01-26T05:10:18.681Z,6.70
2019-01-26T05:12:50.427Z,5.33
2019-01-26T05:15:20.873Z,6.57
2019-01-26T05:17:50.874Z,7.00
2019-01-26T05:20:23.077Z,5.93
2019-01-26T05:22:56.104Z,6.80
2019-01-26T05:25:35.424Z,6.63
2019-01-26T05:28:05.972Z,5.60
2019-01-26T05:30:35.978Z,5.70
2019-01-26T05:33:06.458Z,5.53
2019-01-26T05:35:36.578Z,6.20
2019-01-26T05:38:10.106Z,5.33
2019-01-26T05:40:47.260Z,4.73
2019-01-26T05:43:17.224Z,4.90
2019-01-26T05:45:47.372Z,4.90
2019-01-26T05:48:17.826Z,11.63
2019-01-26T05:50:49.094Z,5.20
2019-01-26T05:53:19.674Z,4.53
2019-01-26T05:55:49.240Z,7.83
2019-01-26T05:58:19.583Z,5.67
2019-01-26T06:00:49.413Z,6.37
2019-01-26T06:03:19.031Z,9.03
2019-01-26T06:05:55.920Z,4.93
2019-01-26T06:08:22.330Z,9.80
2019-01-26T06:10:52.739Z,9.50
2019-01-26T06:13:30.017Z,7.73
2019-01-26T06:16:03.470Z,5.50
2019-01-26T06:18:33.800Z,19.37
2019-01-26T06:21:04.254Z,15.30
2019-01-26T06:23:34.740Z,10.70
2019-01-26T06:26:05.712Z,6.87
2019-01-26T06:28:53.489Z,4.60
2019-01-26T06:31:23.671Z,4.40
2019-01-26T06:33:57.424Z,4.53
2019-01-26T06:36:29.514Z,4.50
2019-01-26T06:54:17.597Z,4.70
2019-01-26T07:31:40.283Z,4.50
2019-01-26T07:34:27.163Z,4.90
2019-01-26T07:36:58.162Z,4.30
2019-01-26T10:10:53.101Z,7.67
2019-01-26T10:13:27.497Z,8.37
2019-01-26T10:15:58.233Z,7.20
2019-01-26T10:18:28.022Z,6.23
2019-01-26T10:20:58.326Z,7.93
2019-01-26T10:23:30.192Z,6.90
2019-01-26T10:26:00.012Z,9.07
2019-01-26T10:28:30.851Z,7.20
2019-01-26T10:31:01.679Z,6.40
2019-01-26T10:33:31.951Z,6.60
2019-01-26T10:36:21.766Z,7.33
2019-01-26T10:39:10.384Z,6.90
2019-01-26T10:42:01.711Z,8.10
2019-01-26T10:44:32.872Z,6.40
2019-01-26T10:47:02.910Z,7.10
2019-01-26T10:49:42.656Z,7.00
2019-01-26T10:52:12.723Z,7.20
2019-01-26T10:54:52.399Z,11.77
2019-01-26T10:57:22.453Z,8.73
2019-01-26T10:59:53.421Z,8.27
2019-01-26T11:02:24.941Z,7.93
2019-01-26T11:04:57.611Z,6.90
2019-01-26T11:07:28.572Z,7.90
2019-01-26T11:10:00.198Z,9.10
2019-01-26T11:12:30.708Z,9.30
2019-01-26T11:15:01.383Z,8.37
2019-01-26T11:17:31.969Z,9.93
2019-01-26T11:20:02.551Z,8.43
2019-01-26T11:22:33.427Z,10.00
2019-01-26T11:25:05.705Z,9.30
2019-01-26T11:27:35.889Z,7.40
2019-01-26T11:30:07.467Z,6.23
2019-01-26T11:32:38.325Z,8.63
2019-01-26T11:35:10.770Z,9.17
2019-01-26T11:37:42.897Z,8.97
2019-01-26T11:40:23.207Z,7.93
2019-01-26T11:42:54.038Z,6.73
2019-01-26T11:45:47.748Z,9.03
2019-01-26T11:48:22.434Z,9.47
2019-01-26T11:50:57.916Z,7.00
2019-01-26T11:53:29.604Z,12.20
2019-01-26T11:56:05.435Z,6.17
2019-01-26T11:58:38.089Z,7.40
2019-01-26T12:01:39.972Z,7.47
2019-01-26T12:04:23.806Z,6.37
2019-01-26T12:06:59.380Z,7.40
2019-01-26T12:09:31.425Z,5.87
2019-01-26T12:12:03.792Z,6.23
2019-01-26T12:14:36.006Z,15.80
2019-01-26T12:17:07.688Z,7.40
2019-01-26T12:19:39.731Z,8.37
2019-01-26T12:22:11.711Z,7.30
2019-01-26T12:24:43.657Z,7.20
2019-01-26T12:27:15.275Z,6.40
2019-01-26T12:29:46.387Z,9.50
2019-01-26T12:32:18.153Z,9.00
2019-01-26T12:34:54.151Z,7.00
2019-01-26T12:37:26.643Z,7.37
2019-01-26T12:39:59.602Z,6.90
2019-01-26T12:42:32.308Z,6.43
2019-01-26T12:45:04.831Z,7.53
2019-01-26T12:47:38.841Z,7.20
2019-01-26T12:50:13.598Z,6.73
2019-01-26T12:52:45.207Z,10.20
2019-01-26T12:55:18.625Z,6.53
2019-01-26T12:57:50.026Z,6.47
2019-01-26T13:00:22.062Z,7.00
2019-01-26T13:02:55.194Z,6.03
2019-01-26T13:05:27.690Z,6.47
2019-01-26T13:08:00.414Z,7.70
2019-01-26T13:10:38.505Z,8.03
2019-01-26T13:13:12.087Z,7.20
2019-01-26T13:15:46.061Z,6.93
2019-01-26T13:18:18.939Z,6.60
2019-01-26T13:20:52.121Z,8.13
2019-01-26T13:23:33.026Z,8.03
2019-01-26T13:26:09.615Z,7.90
2019-01-26T13:28:42.506Z,7.30
2019-01-26T13:31:23.126Z,8.90
2019-01-26T13:33:55.020Z,7.30
2019-01-26T13:36:28.000Z,6.90
2019-01-26T13:39:00.906Z,6.80
2019-01-26T13:41:33.745Z,8.53
2019-01-26T13:44:07.873Z,6.97
2019-01-26T13:46:40.750Z,8.47
2019-01-26T13:49:14.473Z,9.40
2019-01-26T13:51:46.862Z,8.13
2019-01-26T13:54:18.781Z,9.37
2019-01-26T13:56:49.874Z,8.10
2019-01-26T13:59:21.220Z,8.00
2019-01-26T14:01:53.226Z,9.17
2019-01-26T14:04:29.276Z,11.47
2019-01-26T14:07:00.985Z,9.37
2019-01-26T14:09:32.778Z,7.10
2019-01-26T14:12:03.766Z,13.40
2019-01-26T14:14:34.747Z,9.17
2019-01-26T14:17:06.206Z,10.67
2019-01-26T14:19:37.883Z,8.90
2019-01-26T14:22:09.658Z,9.67
2019-01-26T14:24:42.744Z,15.07
2019-01-26T14:27:23.013Z,9.40
2019-01-26T14:29:55.141Z,8.30
2019-01-26T14:32:28.053Z,9.20
2019-01-26T14:35:00.304Z,8.60
2019-01-26T14:37:38.162Z,10.00
2019-01-26T14:40:10.631Z,13.17
2019-01-26T14:42:43.076Z,9.13
2019-01-26T14:45:20.370Z,9.73
2019-01-26T14:47:51.918Z,14.00
2019-01-26T14:50:26.405Z,10.10
2019-01-26T14:53:02.216Z,12.67
2019-01-26T14:55:37.295Z,10.03
2019-01-26T14:58:13.278Z,22.63
2019-01-26T15:00:44.572Z,12.20
2019-01-26T15:03:20.111Z,14.97
2019-01-26T15:05:51.670Z,19.77
2019-01-26T15:08:23.322Z,9.20
2019-01-26T15:10:56.102Z,6.57
2019-01-26T15:13:30.342Z,8.00
2019-01-26T15:16:02.534Z,7.90
2019-01-26T15:18:34.589Z,7.93
2019-01-26T15:21:10.820Z,8.77
2019-01-26T15:23:42.630Z,7.37
2019-01-26T15:26:15.704Z,10.00
2019-01-26T15:28:47.634Z,9.70
2019-01-26T15:31:19.290Z,7.50
2019-01-26T15:33:51.485Z,8.80
2019-01-26T15:36:24.772Z,11.47
2019-01-26T15:38:59.315Z,8.90
2019-01-26T15:41:34.233Z,11.30
2019-01-26T15:44:05.925Z,8.63
2019-01-26T15:46:38.529Z,8.33
2019-01-26T15:49:10.800Z,6.93
2019-01-26T15:51:43.066Z,9.00
2019-01-26T15:54:20.790Z,7.50
2019-01-26T15:56:54.689Z,6.77
2019-01-26T15:59:26.536Z,9.30
2019-01-26T16:01:58.025Z,19.50
2019-01-26T16:04:31.757Z,9.00
2019-01-26T16:07:04.222Z,12.20
2019-01-26T16:09:36.677Z,13.93
2019-01-26T16:12:14.047Z,18.60
2019-01-26T16:14:51.799Z,8.87
2019-01-26T16:17:25.401Z,8.77
2019-01-26T16:19:58.418Z,7.63
2019-01-26T16:23:01.531Z,8.80
2019-01-26T16:25:35.086Z,6.60
2019-01-26T16:28:08.239Z,6.53
2019-01-26T16:30:39.572Z,10.30
2019-01-26T16:33:10.966Z,7.13
2019-01-26T16:35:43.762Z,13.80
2019-01-26T16:38:17.902Z,11.97
2019-01-26T16:40:52.204Z,8.30
2019-01-26T16:43:24.955Z,6.97
2019-01-26T16:45:57.465Z,6.20
2019-01-26T16:48:29.901Z,5.97
2019-01-26T16:51:02.976Z,6.03
2019-01-26T16:53:34.536Z,6.00
2019-01-26T16:56:07.223Z,5.73
2019-01-26T16:58:40.106Z,5.57
2019-01-26T17:01:12.015Z,6.00
2019-01-26T17:03:44.416Z,5.30
2019-01-26T17:06:19.635Z,5.50
2019-01-26T17:08:52.896Z,6.00
2019-01-26T17:11:24.715Z,5.97
2019-01-26T17:13:57.756Z,6.23
2019-01-26T17:16:30.628Z,6.10
2019-01-26T17:19:02.433Z,5.07
2019-01-26T17:21:36.975Z,7.37
2019-01-26T17:24:08.644Z,5.40
2019-01-26T17:27:12.673Z,6.20
2019-01-26T17:37:11.749Z,5.43
2019-01-26T17:40:11.541Z,5.60
2019-01-26T17:42:34.547Z,5.50
2019-01-26T17:45:57.241Z,5.50
2019-01-26T17:48:52.482Z,5.43
2019-01-26T17:51:29.264Z,4.83
2019-01-26T17:54:03.053Z,4.80
2019-01-26T17:56:43.796Z,6.20
2019-01-26T17:59:40.392Z,6.00
2019-01-26T18:02:55.460Z,5.13
2019-01-26T18:06:00.495Z,4.90
2019-01-26T18:08:47.191Z,5.60
2019-01-26T18:16:19.976Z,5.60
2019-01-26T18:23:22.544Z,13.90
2019-01-26T18:27:04.906Z,15.53
2019-01-26T18:41:09.179Z,13.77
2019-01-26T18:46:44.327Z,20.00
2019-01-26T18:46:50.383Z,18.57
2019-01-26T18:54:02.986Z,10.40
2019-01-26T18:56:38.659Z,10.00
2019-01-26T19:03:29.312Z,7.87
2019-01-26T19:06:06.664Z,8.53
2019-01-26T19:09:07.585Z,7.90
2019-01-26T19:11:48.104Z,10.40
2019-01-26T19:14:35.767Z,8.20
2019-01-26T19:17:09.578Z,10.57
2019-01-26T19:23:14.588Z,7.67
2019-01-26T19:27:03.053Z,8.60
2019-01-26T19:33:46.760Z,8.70
2019-01-26T19:36:52.626Z,7.50
2019-01-26T19:40:33.472Z,7.97
2019-01-26T19:43:33.166Z,9.47
2019-01-26T19:47:22.102Z,7.10
2019-01-26T19:50:32.582Z,13.97
2019-01-26T19:53:40.196Z,10.33
2019-01-26T19:56:27.731Z,12.07
2019-01-26T20:02:59.295Z,10.23
2019-01-26T20:05:51.097Z,10.17
2019-01-26T20:08:33.797Z,7.87
2019-01-26T20:11:16.608Z,11.00
2019-01-26T20:13:51.035Z,11.23
2019-01-26T20:16:46.695Z,15.60
2019-01-26T20:19:28.280Z,12.80
2019-01-26T20:22:16.543Z,13.60
2019-01-26T20:25:44.352Z,17.33
2019-01-26T20:28:59.870Z,18.20
2019-01-26T20:32:15.528Z,10.33
2019-01-26T20:34:40.609Z,7.10
2019-01-26T20:42:15.373Z,10.60
2019-01-26T20:43:59.974Z,8.10
2019-01-26T20:46:53.863Z,7.63
2019-01-26T20:49:28.668Z,7.05
2019-01-26T20:52:13.900Z,9.33
2019-01-26T20:55:02.674Z,6.50
2019-01-26T20:57:37.935Z,10.50
2019-01-26T21:00:39.084Z,7.80
2019-01-26T21:03:20.998Z,8.60
2019-01-26T21:06:01.692Z,6.60
2019-01-26T21:08:56.301Z,9.80
2019-01-26T21:15:04.888Z,7.37
2019-01-26T21:18:00.991Z,8.07
2019-01-26T21:20:37.990Z,8.37
2019-01-26T21:26:24.064Z,15.67
2019-01-26T21:28:59.205Z,39.42
2019-01-26T21:31:33.494Z,29.30
2019-01-26T21:34:10.757Z,25.10
2019-01-26T21:36:56.226Z,25.00
2019-01-26T21:39:35.856Z,16.47
2019-01-26T21:42:16.431Z,24.53
2019-01-26T21:45:20.199Z,21.50
2019-01-26T21:50:56.822Z,9.30
2019-01-26T21:53:56.094Z,7.50
2019-01-26T21:56:30.881Z,9.03
2019-01-26T21:59:07.631Z,7.10
2019-01-26T22:01:51.119Z,5.57
2019-01-26T22:04:27.420Z,7.90
2019-01-26T22:07:04.775Z,8.33
2019-01-26T22:09:37.373Z,9.10
2019-01-26T22:12:10.807Z,9.23
2019-01-26T22:14:45.968Z,8.80
2019-01-26T22:17:23.169Z,6.00
2019-01-26T22:19:55.637Z,7.47
2019-01-26T22:22:28.199Z,6.60
2019-01-26T22:25:04.038Z,7.67
2019-01-26T22:27:36.519Z,6.57
2019-01-26T22:30:13.797Z,6.20
2019-01-26T22:32:51.496Z,7.30
2019-01-26T22:35:30.430Z,8.90
2019-01-26T22:38:11.301Z,8.93
2019-01-26T22:40:43.954Z,6.83
2019-01-26T22:43:18.458Z,7.67
2019-01-26T22:45:50.146Z,8.47
2019-01-26T22:48:32.994Z,6.53
2019-01-26T22:51:06.725Z,7.10
2019-01-26T22:53:37.649Z,9.00
2019-01-26T22:56:12.258Z,8.97
2019-01-26T22:58:44.231Z,7.90
2019-01-26T23:01:34.170Z,10.00
2019-01-26T23:05:04.001Z,8.53
2019-01-26T23:08:01.091Z,11.97
2019-01-26T23:11:06.687Z,10.70
2019-01-26T23:13:45.189Z,8.67
2019-01-26T23:17:02.032Z,7.60
2019-01-26T23:20:12.006Z,5.97
2019-01-26T23:23:28.006Z,6.93
2019-01-26T23:26:20.946Z,6.97
2019-01-26T23:29:22.298Z,7.90
2019-01-26T23:31:54.699Z,9.40
2019-01-26T23:34:25.017Z,8.67
2019-01-26T23:36:57.151Z,6.53
2019-01-26T23:39:27.748Z,6.10
2019-01-26T23:41:58.973Z,9.20
2019-01-26T23:44:31.631Z,7.27
2019-01-26T23:47:04.601Z,6.40
2019-01-26T23:50:02.291Z,7.83
2019-01-26T23:52:32.594Z,6.40
2019-01-26T23:55:02.961Z,7.20
2019-01-26T23:57:32.675Z,7.67
